ACA754 CYVR-CYLW
Flight info
| Callsign | ACA754 |
|---|---|
| Flight time | 0h 46m |
| Altitude | 23000 |
| Route | YVR DCT LYTON DCT LW |
| Aircraft | B722/M-SDFGHRWY/C |
Departure
| Time | 2026-05-08 04:03 |
|---|---|
| Airport | Vancouver International Airport (CYVR) |
Arrival
| Time | 2026-05-08 04:50 |
|---|---|
| Airport | Kelowna International Airport (CYLW) |
| Time | Latitude | Longitude | Altitude | Speed | Heading |
|---|---|---|---|---|---|
| 2026-05-08 03:26 | 49.19618 | -123.18375 | 26 ft | 0 kts | 190° |
| 2026-05-08 03:48 | 49.19623 | -123.18374 | 26 ft | 2 kts | 190° |
| 2026-05-08 03:48 | 49.19641 | -123.18369 | 26 ft | 3 kts | 190° |
| 2026-05-08 03:48 | 49.19661 | -123.18363 | 26 ft | 3 kts | 190° |
| 2026-05-08 03:48 | 49.19681 | -123.18358 | 26 ft | 3 kts | 190° |
| 2026-05-08 03:49 | 49.19701 | -123.18352 | 26 ft | 2 kts | 190° |
| 2026-05-08 03:49 | 49.19707 | -123.18351 | 26 ft | 0 kts | 190° |
| 2026-05-08 03:54 | 49.19697 | -123.18359 | 26 ft | 5 kts | 225° |
| 2026-05-08 03:54 | 49.19702 | -123.18473 | 26 ft | 19 kts | 281° |
| 2026-05-08 03:54 | 49.19690 | -123.18661 | 26 ft | 15 kts | 214° |
| 2026-05-08 03:55 | 49.19570 | -123.18691 | 26 ft | 23 kts | 192° |
| 2026-05-08 03:55 | 49.19422 | -123.18713 | 26 ft | 19 kts | 158° |
| 2026-05-08 03:55 | 49.19275 | -123.18717 | 26 ft | 24 kts | 192° |
| 2026-05-08 03:55 | 49.19163 | -123.18701 | 26 ft | 13 kts | 144° |
| 2026-05-08 03:56 | 49.19088 | -123.18614 | 26 ft | 15 kts | 140° |
| 2026-05-08 03:56 | 49.19013 | -123.18523 | 26 ft | 17 kts | 142° |
| 2026-05-08 03:56 | 49.18941 | -123.18355 | 26 ft | 22 kts | 101° |
| 2026-05-08 03:56 | 49.18916 | -123.18129 | 26 ft | 20 kts | 99° |
| 2026-05-08 03:57 | 49.18891 | -123.17895 | 26 ft | 22 kts | 99° |
| 2026-05-08 03:57 | 49.18864 | -123.17655 | 26 ft | 21 kts | 99° |
| 2026-05-08 03:57 | 49.18843 | -123.17461 | 26 ft | 16 kts | 97° |
| 2026-05-08 03:57 | 49.18821 | -123.17265 | 26 ft | 22 kts | 100° |
| 2026-05-08 03:58 | 49.18792 | -123.17007 | 26 ft | 26 kts | 99° |
| 2026-05-08 03:58 | 49.18763 | -123.16752 | 26 ft | 25 kts | 101° |
| 2026-05-08 03:58 | 49.18740 | -123.16572 | 26 ft | 7 kts | 98° |
| 2026-05-08 03:58 | 49.18729 | -123.16469 | 26 ft | 13 kts | 99° |
| 2026-05-08 03:59 | 49.18710 | -123.16326 | 26 ft | 14 kts | 112° |
| 2026-05-08 03:59 | 49.18645 | -123.16188 | 27 ft | 15 kts | 112° |
| 2026-05-08 03:59 | 49.18620 | -123.16023 | 27 ft | 16 kts | 100° |
| 2026-05-08 03:59 | 49.18612 | -123.15960 | 27 ft | 0 kts | 99° |
| 2026-05-08 04:00 | 49.18613 | -123.15960 | 27 ft | 0 kts | 99° |
| 2026-05-08 04:01 | 49.18612 | -123.15960 | 27 ft | 0 kts | 99° |
| 2026-05-08 04:01 | 49.18607 | -123.15904 | 27 ft | 12 kts | 99° |
| 2026-05-08 04:01 | 49.18554 | -123.15758 | 27 ft | 18 kts | 166° |
| 2026-05-08 04:02 | 49.18454 | -123.15832 | 29 ft | 16 kts | 258° |
| 2026-05-08 04:02 | 49.18452 | -123.15890 | 29 ft | 0 kts | 277° |
| 2026-05-08 04:03 | 49.18452 | -123.15892 | 29 ft | 3 kts | 276° |
| 2026-05-08 04:03 | 49.18631 | -123.17489 | 75 ft | 141 kts | 276° |
| 2026-05-08 04:03 | 49.18821 | -123.19001 | 682 ft | 152 kts | 279° |
| 2026-05-08 04:04 | 49.19052 | -123.20636 | 1330 ft | 164 kts | 281° |
| 2026-05-08 04:04 | 49.19290 | -123.22404 | 1986 ft | 173 kts | 277° |
| 2026-05-08 04:04 | 49.19485 | -123.24227 | 2774 ft | 177 kts | 277° |
| 2026-05-08 04:04 | 49.19753 | -123.26121 | 3409 ft | 187 kts | 289° |
| 2026-05-08 04:05 | 49.20512 | -123.27793 | 3738 ft | 211 kts | 326° |
| 2026-05-08 04:05 | 49.21866 | -123.28652 | 4478 ft | 208 kts | 341° |
| 2026-05-08 04:05 | 49.23220 | -123.29408 | 5395 ft | 208 kts | 340° |
| 2026-05-08 04:05 | 49.24619 | -123.30184 | 6040 ft | 218 kts | 340° |
| 2026-05-08 04:06 | 49.26061 | -123.30980 | 6771 ft | 220 kts | 340° |
| 2026-05-08 04:06 | 49.27496 | -123.31779 | 7364 ft | 220 kts | 340° |
| 2026-05-08 04:06 | 49.28958 | -123.32584 | 7711 ft | 228 kts | 340° |
| 2026-05-08 04:06 | 49.30450 | -123.33398 | 8305 ft | 227 kts | 340° |
| 2026-05-08 04:07 | 49.31977 | -123.34077 | 8768 ft | 231 kts | 353° |
| 2026-05-08 04:07 | 49.33509 | -123.33484 | 9232 ft | 232 kts | 36° |
| 2026-05-08 04:07 | 49.34399 | -123.31494 | 9702 ft | 229 kts | 75° |
| 2026-05-08 04:07 | 49.34712 | -123.29101 | 10164 ft | 230 kts | 82° |
| 2026-05-08 04:08 | 49.34980 | -123.26699 | 10545 ft | 233 kts | 82° |
| 2026-05-08 04:08 | 49.35256 | -123.24242 | 10937 ft | 235 kts | 82° |
| 2026-05-08 04:08 | 49.35532 | -123.21760 | 11331 ft | 236 kts | 82° |
| 2026-05-08 04:08 | 49.35807 | -123.19253 | 11720 ft | 238 kts | 82° |
| 2026-05-08 04:09 | 49.36085 | -123.16738 | 12096 ft | 240 kts | 82° |
| 2026-05-08 04:09 | 49.36374 | -123.14198 | 12442 ft | 242 kts | 79° |
| 2026-05-08 04:09 | 49.37117 | -123.11875 | 12751 ft | 246 kts | 51° |
| 2026-05-08 04:09 | 49.38336 | -123.10025 | 13109 ft | 247 kts | 42° |
| 2026-05-08 04:10 | 49.39599 | -123.08260 | 13437 ft | 249 kts | 43° |
| 2026-05-08 04:10 | 49.40879 | -123.06451 | 13736 ft | 250 kts | 43° |
| 2026-05-08 04:10 | 49.42157 | -123.04627 | 14021 ft | 252 kts | 43° |
| 2026-05-08 04:10 | 49.43451 | -123.02789 | 14275 ft | 253 kts | 43° |
| 2026-05-08 04:11 | 49.44756 | -123.00923 | 14569 ft | 256 kts | 43° |
| 2026-05-08 04:11 | 49.46049 | -122.99077 | 14871 ft | 257 kts | 43° |
| 2026-05-08 04:11 | 49.47368 | -122.97199 | 15187 ft | 259 kts | 43° |
| 2026-05-08 04:11 | 49.48695 | -122.95306 | 15493 ft | 260 kts | 43° |
| 2026-05-08 04:12 | 49.50015 | -122.93427 | 15781 ft | 262 kts | 43° |
| 2026-05-08 04:12 | 49.51367 | -122.91500 | 16013 ft | 264 kts | 43° |
| 2026-05-08 04:12 | 49.52754 | -122.89526 | 16012 ft | 276 kts | 43° |
| 2026-05-08 04:12 | 49.54189 | -122.87482 | 16015 ft | 285 kts | 43° |
| 2026-05-08 04:13 | 49.55642 | -122.85411 | 16017 ft | 291 kts | 43° |
| 2026-05-08 04:13 | 49.57143 | -122.83268 | 16011 ft | 295 kts | 43° |
| 2026-05-08 04:13 | 49.58657 | -122.81107 | 16044 ft | 296 kts | 43° |
| 2026-05-08 04:13 | 49.60172 | -122.78957 | 16130 ft | 294 kts | 43° |
| 2026-05-08 04:14 | 49.61677 | -122.76802 | 16139 ft | 297 kts | 43° |
| 2026-05-08 04:14 | 49.63176 | -122.74659 | 16188 ft | 297 kts | 43° |
| 2026-05-08 04:14 | 49.64691 | -122.72492 | 16229 ft | 297 kts | 43° |
| 2026-05-08 04:14 | 49.66211 | -122.70318 | 16235 ft | 298 kts | 43° |
| 2026-05-08 04:15 | 49.67736 | -122.68134 | 16262 ft | 298 kts | 43° |
| 2026-05-08 04:15 | 49.69255 | -122.65964 | 16326 ft | 298 kts | 43° |
| 2026-05-08 04:15 | 49.70783 | -122.63784 | 16372 ft | 298 kts | 43° |
| 2026-05-08 04:15 | 49.72313 | -122.61595 | 16412 ft | 299 kts | 43° |
| 2026-05-08 04:16 | 49.73817 | -122.59439 | 16450 ft | 299 kts | 43° |
| 2026-05-08 04:16 | 49.75281 | -122.57348 | 16463 ft | 262 kts | 43° |
| 2026-05-08 04:16 | 49.76603 | -122.55455 | 16272 ft | 265 kts | 43° |
| 2026-05-08 04:16 | 49.77942 | -122.53534 | 16742 ft | 258 kts | 43° |
| 2026-05-08 04:17 | 49.79237 | -122.51666 | 17051 ft | 259 kts | 43° |
| 2026-05-08 04:17 | 49.80563 | -122.49736 | 17310 ft | 262 kts | 44° |
| 2026-05-08 04:17 | 49.81888 | -122.47792 | 17600 ft | 263 kts | 44° |
| 2026-05-08 04:17 | 49.83228 | -122.45829 | 17884 ft | 264 kts | 43° |
| 2026-05-08 04:18 | 49.84581 | -122.43882 | 18138 ft | 266 kts | 43° |
| 2026-05-08 04:18 | 49.85924 | -122.41947 | 18354 ft | 268 kts | 43° |
| 2026-05-08 04:18 | 49.87293 | -122.39976 | 18592 ft | 268 kts | 43° |
| 2026-05-08 04:18 | 49.88660 | -122.37990 | 18774 ft | 269 kts | 43° |
| 2026-05-08 04:19 | 49.90035 | -122.35994 | 18940 ft | 271 kts | 43° |
| 2026-05-08 04:19 | 49.91412 | -122.33989 | 19110 ft | 272 kts | 43° |
| 2026-05-08 04:19 | 49.92778 | -122.31998 | 19302 ft | 272 kts | 43° |
| 2026-05-08 04:19 | 49.94158 | -122.29975 | 19512 ft | 273 kts | 43° |
| 2026-05-08 04:20 | 49.95536 | -122.27939 | 19714 ft | 274 kts | 43° |
| 2026-05-08 04:20 | 49.96920 | -122.25933 | 19880 ft | 275 kts | 42° |
| 2026-05-08 04:20 | 49.98328 | -122.23909 | 20030 ft | 276 kts | 42° |
| 2026-05-08 04:20 | 49.99738 | -122.21875 | 20174 ft | 277 kts | 42° |
| 2026-05-08 04:21 | 50.01151 | -122.19831 | 20343 ft | 277 kts | 42° |
| 2026-05-08 04:21 | 50.02561 | -122.17783 | 20529 ft | 277 kts | 42° |
| 2026-05-08 04:21 | 50.03954 | -122.15745 | 20650 ft | 276 kts | 41° |
| 2026-05-08 04:21 | 50.05367 | -122.13714 | 20757 ft | 277 kts | 41° |
| 2026-05-08 04:22 | 50.06771 | -122.11644 | 20857 ft | 278 kts | 42° |
| 2026-05-08 04:22 | 50.08179 | -122.09569 | 20965 ft | 278 kts | 41° |
| 2026-05-08 04:22 | 50.09609 | -122.07521 | 21046 ft | 280 kts | 41° |
| 2026-05-08 04:22 | 50.11047 | -122.05458 | 21190 ft | 280 kts | 41° |
| 2026-05-08 04:23 | 50.12467 | -122.03422 | 21302 ft | 281 kts | 41° |
| 2026-05-08 04:23 | 50.13906 | -122.01353 | 21416 ft | 281 kts | 41° |
| 2026-05-08 04:23 | 50.15345 | -121.99282 | 21523 ft | 282 kts | 40° |
| 2026-05-08 04:23 | 50.16788 | -121.97199 | 21611 ft | 283 kts | 41° |
| 2026-05-08 04:24 | 50.18233 | -121.95109 | 21729 ft | 283 kts | 41° |
| 2026-05-08 04:24 | 50.19683 | -121.93014 | 21841 ft | 283 kts | 41° |
| 2026-05-08 04:24 | 50.21131 | -121.90921 | 21939 ft | 283 kts | 41° |
| 2026-05-08 04:24 | 50.22577 | -121.88831 | 22030 ft | 283 kts | 40° |
| 2026-05-08 04:25 | 50.24034 | -121.86744 | 22132 ft | 284 kts | 40° |
| 2026-05-08 04:25 | 50.25367 | -121.84517 | 22260 ft | 284 kts | 56° |
| 2026-05-08 04:25 | 50.25876 | -121.81629 | 22657 ft | 270 kts | 94° |
| 2026-05-08 04:25 | 50.25447 | -121.78817 | 22861 ft | 266 kts | 111° |
| 2026-05-08 04:26 | 50.24990 | -121.76005 | 22864 ft | 275 kts | 103° |
| 2026-05-08 04:26 | 50.24680 | -121.73024 | 22860 ft | 280 kts | 100° |
| 2026-05-08 04:26 | 50.24405 | -121.69985 | 22849 ft | 284 kts | 99° |
| 2026-05-08 04:26 | 50.24164 | -121.66897 | 22847 ft | 288 kts | 97° |
| 2026-05-08 04:27 | 50.23963 | -121.63763 | 22848 ft | 289 kts | 97° |
| 2026-05-08 04:27 | 50.23750 | -121.60629 | 22848 ft | 291 kts | 98° |
| 2026-05-08 04:27 | 50.23524 | -121.57468 | 22845 ft | 294 kts | 97° |
| 2026-05-08 04:27 | 50.23330 | -121.54319 | 22847 ft | 296 kts | 97° |
| 2026-05-08 04:28 | 50.23100 | -121.51080 | 22824 ft | 296 kts | 98° |
| 2026-05-08 04:28 | 50.22890 | -121.47935 | 22833 ft | 296 kts | 96° |
| 2026-05-08 04:28 | 50.22681 | -121.44728 | 22840 ft | 297 kts | 98° |
| 2026-05-08 04:28 | 50.22445 | -121.41518 | 22838 ft | 297 kts | 98° |
| 2026-05-08 04:29 | 50.22216 | -121.38304 | 22840 ft | 298 kts | 97° |
| 2026-05-08 04:29 | 50.22018 | -121.35085 | 22855 ft | 298 kts | 96° |
| 2026-05-08 04:29 | 50.21792 | -121.31843 | 22844 ft | 300 kts | 98° |
| 2026-05-08 04:29 | 50.21546 | -121.28588 | 22840 ft | 301 kts | 98° |
| 2026-05-08 04:30 | 50.21397 | -121.26434 | 22833 ft | 301 kts | 97° |
| 2026-05-08 04:30 | 50.21202 | -121.23170 | 22848 ft | 302 kts | 97° |
| 2026-05-08 04:30 | 50.20863 | -121.18869 | 23012 ft | 295 kts | 98° |
| 2026-05-08 04:30 | 50.20706 | -121.16739 | 22796 ft | 298 kts | 97° |
| 2026-05-08 04:31 | 50.20519 | -121.13543 | 22891 ft | 297 kts | 95° |
| 2026-05-08 04:31 | 50.20299 | -121.10324 | 22860 ft | 299 kts | 101° |
| 2026-05-08 04:31 | 50.19968 | -121.06019 | 22848 ft | 302 kts | 95° |
| 2026-05-08 04:31 | 50.19884 | -121.03812 | 22852 ft | 302 kts | 95° |
| 2026-05-08 04:32 | 50.19585 | -121.00560 | 22851 ft | 303 kts | 99° |
| 2026-05-08 04:32 | 50.19338 | -120.97290 | 22844 ft | 304 kts | 97° |
| 2026-05-08 04:32 | 50.19114 | -120.94047 | 22848 ft | 304 kts | 97° |
| 2026-05-08 04:32 | 50.18860 | -120.90761 | 22850 ft | 304 kts | 98° |
| 2026-05-08 04:33 | 50.18625 | -120.87486 | 22854 ft | 304 kts | 97° |
| 2026-05-08 04:33 | 50.18388 | -120.84211 | 22851 ft | 304 kts | 98° |
| 2026-05-08 04:33 | 50.18142 | -120.80920 | 22850 ft | 304 kts | 97° |
| 2026-05-08 04:33 | 50.17897 | -120.77641 | 22851 ft | 304 kts | 98° |
| 2026-05-08 04:34 | 50.17650 | -120.74370 | 22853 ft | 305 kts | 97° |
| 2026-05-08 04:34 | 50.17407 | -120.71080 | 22865 ft | 305 kts | 97° |
| 2026-05-08 04:34 | 50.17165 | -120.67815 | 22850 ft | 306 kts | 97° |
| 2026-05-08 04:34 | 50.16924 | -120.64520 | 22861 ft | 306 kts | 97° |
| 2026-05-08 04:35 | 50.16664 | -120.61221 | 22854 ft | 306 kts | 97° |
| 2026-05-08 04:35 | 50.16422 | -120.57922 | 22866 ft | 305 kts | 97° |
| 2026-05-08 04:35 | 50.16160 | -120.54639 | 22866 ft | 306 kts | 98° |
| 2026-05-08 04:35 | 50.15910 | -120.51329 | 22866 ft | 306 kts | 97° |
| 2026-05-08 04:36 | 50.15670 | -120.48076 | 22868 ft | 306 kts | 97° |
| 2026-05-08 04:36 | 50.15404 | -120.44780 | 22860 ft | 306 kts | 97° |
| 2026-05-08 04:36 | 50.15158 | -120.41473 | 22859 ft | 306 kts | 97° |
| 2026-05-08 04:36 | 50.14891 | -120.38170 | 22854 ft | 306 kts | 97° |
| 2026-05-08 04:37 | 50.14647 | -120.34867 | 22859 ft | 306 kts | 97° |
| 2026-05-08 04:37 | 50.14374 | -120.31573 | 22860 ft | 306 kts | 97° |
| 2026-05-08 04:37 | 50.14128 | -120.28309 | 22856 ft | 306 kts | 97° |
| 2026-05-08 04:37 | 50.13856 | -120.25005 | 22858 ft | 306 kts | 97° |
| 2026-05-08 04:38 | 50.13606 | -120.21697 | 22855 ft | 307 kts | 97° |
| 2026-05-08 04:38 | 50.13332 | -120.18400 | 22864 ft | 307 kts | 96° |
| 2026-05-08 04:38 | 50.13078 | -120.15087 | 22863 ft | 308 kts | 97° |
| 2026-05-08 04:38 | 50.12808 | -120.11812 | 22883 ft | 305 kts | 97° |
| 2026-05-08 04:39 | 50.12560 | -120.08665 | 22027 ft | 288 kts | 96° |
| 2026-05-08 04:39 | 50.12296 | -120.05517 | 20686 ft | 293 kts | 96° |
| 2026-05-08 04:39 | 50.12093 | -120.02443 | 19694 ft | 283 kts | 95° |
| 2026-05-08 04:39 | 50.11742 | -119.99471 | 18698 ft | 276 kts | 100° |
| 2026-05-08 04:40 | 50.11514 | -119.96542 | 17635 ft | 268 kts | 91° |
| 2026-05-08 04:40 | 50.11332 | -119.93648 | 16656 ft | 268 kts | 95° |
| 2026-05-08 04:40 | 50.11110 | -119.90772 | 16087 ft | 264 kts | 96° |
| 2026-05-08 04:40 | 50.10852 | -119.87983 | 15611 ft | 259 kts | 96° |
| 2026-05-08 04:41 | 50.10708 | -119.85201 | 15087 ft | 257 kts | 92° |
| 2026-05-08 04:41 | 50.10409 | -119.82462 | 14564 ft | 255 kts | 102° |
| 2026-05-08 04:41 | 50.10139 | -119.79744 | 14050 ft | 252 kts | 92° |
| 2026-05-08 04:41 | 50.10010 | -119.77028 | 13531 ft | 250 kts | 97° |
| 2026-05-08 04:42 | 50.09762 | -119.74407 | 13012 ft | 242 kts | 92° |
| 2026-05-08 04:42 | 50.10115 | -119.71906 | 12163 ft | 236 kts | 62° |
| 2026-05-08 04:42 | 50.10750 | -119.69566 | 11286 ft | 236 kts | 76° |
| 2026-05-08 04:42 | 50.10892 | -119.67037 | 10519 ft | 233 kts | 88° |
| 2026-05-08 04:43 | 50.10904 | -119.64539 | 9796 ft | 228 kts | 88° |
| 2026-05-08 04:43 | 50.10925 | -119.62102 | 9000 ft | 228 kts | 88° |
| 2026-05-08 04:43 | 50.10936 | -119.59632 | 8218 ft | 223 kts | 88° |
| 2026-05-08 04:43 | 50.10954 | -119.57229 | 7217 ft | 225 kts | 88° |
| 2026-05-08 04:44 | 50.10981 | -119.54774 | 6154 ft | 228 kts | 88° |
| 2026-05-08 04:44 | 50.11005 | -119.52326 | 5090 ft | 226 kts | 88° |
| 2026-05-08 04:44 | 50.11038 | -119.49905 | 4363 ft | 210 kts | 88° |
| 2026-05-08 04:44 | 50.11072 | -119.47845 | 4334 ft | 173 kts | 88° |
| 2026-05-08 04:45 | 50.11097 | -119.46128 | 4330 ft | 148 kts | 88° |
| 2026-05-08 04:45 | 50.11122 | -119.44647 | 4323 ft | 127 kts | 88° |
| 2026-05-08 04:45 | 50.11146 | -119.43337 | 4223 ft | 130 kts | 88° |
| 2026-05-08 04:45 | 50.11181 | -119.41637 | 4405 ft | 182 kts | 89° |
| 2026-05-08 04:46 | 50.10956 | -119.39497 | 4461 ft | 213 kts | 114° |
| 2026-05-08 04:46 | 50.09951 | -119.37721 | 4395 ft | 229 kts | 137° |
| 2026-05-08 04:46 | 50.08687 | -119.36158 | 4431 ft | 232 kts | 150° |
| 2026-05-08 04:46 | 50.07123 | -119.35946 | 4313 ft | 241 kts | 206° |
| 2026-05-08 04:47 | 50.05661 | -119.37333 | 3564 ft | 246 kts | 208° |
| 2026-05-08 04:47 | 50.04432 | -119.38338 | 3126 ft | 164 kts | 218° |
| 2026-05-08 04:47 | 50.03534 | -119.38997 | 2545 ft | 139 kts | 176° |
| 2026-05-08 04:47 | 50.02490 | -119.38797 | 2476 ft | 161 kts | 175° |
| 2026-05-08 04:48 | 50.01338 | -119.38630 | 2383 ft | 160 kts | 174° |
| 2026-05-08 04:48 | 50.00319 | -119.38475 | 2206 ft | 140 kts | 172° |
| 2026-05-08 04:48 | 49.99370 | -119.38316 | 1880 ft | 132 kts | 173° |
| 2026-05-08 04:48 | 49.98505 | -119.38177 | 1733 ft | 121 kts | 173° |
| 2026-05-08 04:49 | 49.97613 | -119.38048 | 1612 ft | 136 kts | 173° |
| 2026-05-08 04:49 | 49.96736 | -119.37931 | 1428 ft | 117 kts | 173° |
| 2026-05-08 04:49 | 49.96034 | -119.37832 | 1401 ft | 83 kts | 176° |
| 2026-05-08 04:49 | 49.95561 | -119.37768 | 1383 ft | 57 kts | 175° |
| 2026-05-08 04:50 | 49.95233 | -119.37725 | 1376 ft | 34 kts | 175° |
| 2026-05-08 04:50 | 49.95157 | -119.37777 | 1378 ft | 15 kts | 255° |
| 2026-05-08 04:50 | 49.95115 | -119.37898 | 1377 ft | 14 kts | 230° |
| 2026-05-08 04:50 | 49.95077 | -119.37928 | 1376 ft | 5 kts | 230° |
| 2026-05-08 04:51 | 49.95080 | -119.37995 | 1377 ft | 6 kts | 304° |
| 2026-05-08 04:51 | 49.95090 | -119.38011 | 1375 ft | 0 kts | 324° |
| 2026-05-08 05:13 | 49.95089 | -119.38011 | 1377 ft | 0 kts | 324° |